• Join FlightAware (Why Join?)
  • Login
  • US Flag 
09:03PM EST


 

Airport Tracker/Info


-or-


 

Live Flight TrackerFlight Track Log ✈ UAL4663 ✈ 14-Apr-2013 ✈ KEWR - KRDU

Flight Track Log - Related Links

Times and Time Zones

All times are in EDT time to prevent confusion due to time zone crossing. See the UAL4663 flight status page for this flight to view local times or setup timezone preferences in your user account.

Time Position Orientation Groundspeed Altitude Reporting Facility
EDT Latitude Longitude Course Direction KTS MPH feet Rate Location/Type
06:40PM 40.7167 -74.1500 180° South 168 193 1,400  Level New York TRACON
06:41PM 40.7667 -74.1167 27° Northeast 228 262 2,900 1,800 Climbing New York TRACON
06:42PM 40.8167 -74.1000 14° North 251 289 5,000 1,500 Climbing New York TRACON
06:43PM 40.8500 -74.1833 298° West 238 274 6,000 900 Climbing New York TRACON
06:44PM 40.2127 -74.1791 194° South  Level FlightAware Approximate
06:44PM 40.8000 -74.2167 207° Southwest 259 298 6,900  Level New York TRACON
06:45PM 40.1145 -74.2167 180° South  Level FlightAware Approximate
06:45PM 40.7167 -74.2333 189° South 295 339 8,100  Level New York TRACON
06:47PM 40.5400 -74.2339 180° South 321 369 11,800 1,560 Climbing New York Center
06:48PM 40.4472 -74.2044 166° South 365 420 13,100 1,560 Climbing New York Center
06:49PM 40.3356 -74.1744 168° South 379 436 15,000 1,680 Climbing New York Center
06:50PM 40.2369 -74.1886 186° South 361 415 16,500 1,320 Climbing New York Center
06:51PM 40.1664 -74.2503 214° Southwest 348 400 17,700 1,080 Climbing New York Center
06:52PM 40.0806 -74.3356 217° Southwest 351 404 18,700 900 Climbing New York Center
06:53PM 40.0033 -74.4103 217° Southwest 351 404 19,600 960 Climbing New York Center
06:56PM 39.8197 -74.5947 218° Southwest 358 412 21,900 1,020 Climbing Washington Center
06:57PM 39.7350 -74.6794 218° Southwest 378 435 22,900 1,020 Climbing Washington Center
06:58PM 39.6503 -74.7669 219° Southwest 390 449 24,000 1,080 Climbing Washington Center
06:59PM 39.5653 -74.8514 217° Southwest 390 449 25,100 900 Climbing Washington Center
07:00PM 39.4825 -74.9300 216° Southwest 390 449 25,900 420 Climbing Washington Center
07:01PM 39.3953 -75.0169 218° Southwest 390 449 26,000  Climbing Washington Center
07:02PM 39.3083 -75.1061 218° Southwest 395 455 26,000  Level Washington Center
07:03PM 39.2253 -75.2083 224° Southwest 401 461 26,000  Level Washington Center
07:04PM 39.1486 -75.3106 226° Southwest 406 467 26,000  Level Washington Center
07:05PM 39.0653 -75.4178 225° Southwest 412 474 26,000  Level Washington Center
07:06PM 38.9819 -75.5247 225° Southwest 412 474 26,000  Level Washington Center
07:07PM 38.9028 -75.6342 227° Southwest 412 474 26,000  Level Washington Center
07:08PM 38.8528 -75.7675 244° Southwest 417 480 26,000  Level Washington Center
07:09PM 38.8003 -75.8981 243° Southwest 417 480 26,000  Level Washington Center
07:10PM 38.7186 -76.0014 225° Southwest 412 474 26,000  Level Washington Center
07:11PM 38.6225 -76.0914 216° Southwest 417 480 26,000  Level Washington Center
07:12PM 38.5389 -76.1703 216° Southwest 430 495 26,000  Level Washington Center
07:13PM 38.4383 -76.2544 213° Southwest 430 495 26,000  Level Washington Center
07:14PM 38.3378 -76.3356 212° Southwest 430 495 26,000  Level Washington Center
07:15PM 38.2350 -76.4111 210° Southwest 435 501 26,000  Level Washington Center
07:16PM 38.1322 -76.4919 212° Southwest 435 501 26,000  Level Washington Center
07:17PM 38.0231 -76.5803 213° Southwest 435 501 26,000  Level Washington Center
07:18PM 37.9244 -76.6553 211° Southwest 435 501 26,000 -420 Level Washington Center
07:19PM 37.8236 -76.7328 211° Southwest 430 495 25,200 -900 Descending Washington Center
07:20PM 37.7228 -76.8125 212° Southwest 430 495 24,200 -1,020 Descending Washington Center
07:21PM 37.6261 -76.8872 211° Southwest 430 495 23,200 -960 Descending Washington Center
07:22PM 37.5314 -76.9614 212° Southwest 423 487 22,300 -600 Descending Washington Center
07:23PM 37.4367 -77.0356 212° Southwest 411 473 22,000 -180 Descending Washington Center
07:24PM 37.3525 -77.0994 211° Southwest 405 466 22,000 -300 Level Washington Center
07:25PM 37.2536 -77.1678 209° Southwest 405 466 21,500 -780 Descending Washington Center
07:26PM 37.1608 -77.2311 209° Southwest 405 466 20,500 -780 Descending Washington Center
07:27PM 37.0661 -77.2994 210° Southwest 400 460 20,000 -300 Descending Washington Center
07:28PM 36.9733 -77.3675 210° Southwest 400 460 20,000  Level Washington Center
07:29PM 36.8803 -77.4406 212° Southwest 400 460 20,000  Level Washington Center
07:30PM 36.7856 -77.5083 210° Southwest 400 460 20,000  Level Washington Center
07:31PM 36.6947 -77.5761 211° Southwest 400 460 20,000  Level Washington Center
07:32PM 36.5994 -77.6489 212° Southwest 400 460 20,000  Level Washington Center
07:33PM 36.5106 -77.7214 213° Southwest 400 460 20,000 -960 Level Washington Center
07:34PM 36.4381 -77.8150 226° Southwest 394 453 18,100 -2,100 Descending Washington Center
07:35PM 36.3608 -77.9186 227° Southwest 379 436 15,800 -2,040 Descending Washington Center
07:35PM 36.3117 -77.9814 226° Southwest 373 429 14,700 -1,740 Descending Washington Center
07:36PM 36.2903 -78.0117 229° Southwest 374 430 14,100 -1,680 Descending Washington Center
07:36PM 36.2492 -78.0775 232° Southwest 356 410 13,000 -1,800 Descending Washington Center
07:37PM 36.2339 -78.1106 240° Southwest 369 425 12,300 -1,800 Descending Washington Center
07:38PM 36.1858 -78.2144 240° Southwest 357 411 10,700 -1,440 Descending Washington Center
07:38PM 36.1553 -78.2778 239° Southwest 299 344 9,900 -1,140 Descending Washington Center
07:39PM 36.1442 -78.3006 239° Southwest 322 371 9,600 -1,500 Descending Washington Center
07:39PM 36.1158 -78.3611 240° Southwest 262 302 8,400 -1,740 Descending Washington Center
07:40PM 36.1089 -78.3814 247° West 279 321 7,900 -1,500 Descending Washington Center
07:40PM 36.0806 -78.4369 238° Southwest 255 293 6,900 -1,320 Descending Washington Center
07:41PM 36.0717 -78.4597 244° Southwest 269 310 6,600 -1,260 Descending Washington Center
07:41PM 36.0433 -78.5153 238° Southwest 248 285 5,500 -1,320 Descending Washington Center
07:42PM 36.0122 -78.5886 242° Southwest 245 282 4,200 -1,320 Descending Washington Center
07:43PM 35.9833 -78.6594 243° Southwest 240 276 3,000 -1,320 Descending Washington Center